sensor_id;sensor_type;location;lat;lon;timestamp;pressure;altitude;pressure_sealevel;temperature;humidity
84819;BME280;75053;51.080;13.712;2024-03-23T00:55:40;99574.78;;;17.41;52.28
84819;BME280;75053;51.080;13.712;2024-03-23T00:58:05;99575.78;;;17.40;52.43
84819;BME280;75053;51.080;13.712;2024-03-23T01:00:31;99569.81;;;17.30;52.97
84819;BME280;75053;51.080;13.712;2024-03-23T01:02:56;99573.78;;;17.26;53.00
84819;BME280;75053;51.080;13.712;2024-03-23T01:05:23;99569.47;;;17.33;52.95
84819;BME280;75053;51.080;13.712;2024-03-23T01:07:48;99574.06;;;17.63;52.22
84819;BME280;75053;51.080;13.712;2024-03-23T01:10:14;99573.44;;;17.61;52.26
84819;BME280;75053;51.080;13.712;2024-03-23T01:12:39;99571.78;;;17.52;52.65
84819;BME280;75053;51.080;13.712;2024-03-23T01:15:05;99571.09;;;17.66;52.64
84819;BME280;75053;51.080;13.712;2024-03-23T01:17:30;99575.56;;;17.66;52.56
84819;BME280;75053;51.080;13.712;2024-03-23T01:19:56;99557.28;;;17.56;52.43
84819;BME280;75053;51.080;13.712;2024-03-23T01:22:21;99556.63;;;17.46;53.08
84819;BME280;75053;51.080;13.712;2024-03-23T01:24:46;99541.78;;;17.61;52.42
84819;BME280;75053;51.080;13.712;2024-03-23T01:27:12;99533.53;;;17.56;52.53
84819;BME280;75053;51.080;13.712;2024-03-23T01:29:37;99536.59;;;17.76;51.93
84819;BME280;75053;51.080;13.712;2024-03-23T01:32:04;99551.75;;;17.90;51.72
84819;BME280;75053;51.080;13.712;2024-03-23T01:34:30;99541.31;;;17.96;51.22
84819;BME280;75053;51.080;13.712;2024-03-23T01:36:58;99545.00;;;17.79;51.74
84819;BME280;75053;51.080;13.712;2024-03-23T01:39:24;99533.78;;;17.85;51.81
84819;BME280;75053;51.080;13.712;2024-03-23T01:41:49;99536.22;;;17.48;52.99
84819;BME280;75053;51.080;13.712;2024-03-23T01:44:15;99538.44;;;17.75;51.94
84819;BME280;75053;51.080;13.712;2024-03-23T01:46:41;99522.63;;;17.75;51.89
84819;BME280;75053;51.080;13.712;2024-03-23T01:49:08;99516.31;;;17.84;51.70
84819;BME280;75053;51.080;13.712;2024-03-23T01:51:34;99519.59;;;17.86;51.97
84819;BME280;75053;51.080;13.712;2024-03-23T01:54:02;99517.00;;;17.70;51.96
84819;BME280;75053;51.080;13.712;2024-03-23T01:56:34;99516.47;;;17.83;52.06
84819;BME280;75053;51.080;13.712;2024-03-23T01:59:03;99508.06;;;17.87;51.90
84819;BME280;75053;51.080;13.712;2024-03-23T02:01:29;99509.31;;;17.99;51.67
84819;BME280;75053;51.080;13.712;2024-03-23T02:03:55;99503.00;;;18.08;51.30
84819;BME280;75053;51.080;13.712;2024-03-23T02:06:21;99501.38;;;18.07;51.95
84819;BME280;75053;51.080;13.712;2024-03-23T02:08:47;99501.63;;;18.20;51.62
84819;BME280;75053;51.080;13.712;2024-03-23T02:11:13;99506.53;;;18.31;51.71
84819;BME280;75053;51.080;13.712;2024-03-23T02:13:38;99501.19;;;18.39;51.04
84819;BME280;75053;51.080;13.712;2024-03-23T02:16:05;99491.94;;;18.43;51.33
84819;BME280;75053;51.080;13.712;2024-03-23T02:18:31;99491.22;;;18.49;51.28
84819;BME280;75053;51.080;13.712;2024-03-23T02:20:56;99477.88;;;18.65;51.22
84819;BME280;75053;51.080;13.712;2024-03-23T02:23:21;99472.16;;;18.76;50.75
84819;BME280;75053;51.080;13.712;2024-03-23T02:25:47;99455.13;;;18.78;50.55
84819;BME280;75053;51.080;13.712;2024-03-23T02:28:15;99463.69;;;18.66;51.20
84819;BME280;75053;51.080;13.712;2024-03-23T02:30:41;99463.38;;;18.61;50.95
84819;BME280;75053;51.080;13.712;2024-03-23T02:33:06;99463.97;;;18.71;50.50
84819;BME280;75053;51.080;13.712;2024-03-23T02:35:32;99459.97;;;18.75;50.57
84819;BME280;75053;51.080;13.712;2024-03-23T02:37:57;99449.84;;;18.78;50.45
84819;BME280;75053;51.080;13.712;2024-03-23T02:40:23;99451.03;;;18.76;50.60
84819;BME280;75053;51.080;13.712;2024-03-23T02:42:55;99445.84;;;18.82;50.29
84819;BME280;75053;51.080;13.712;2024-03-23T02:45:20;99454.34;;;18.92;50.26
84819;BME280;75053;51.080;13.712;2024-03-23T02:47:46;99440.50;;;18.90;50.29
84819;BME280;75053;51.080;13.712;2024-03-23T02:50:11;99447.25;;;18.93;50.33
84819;BME280;75053;51.080;13.712;2024-03-23T02:52:37;99439.78;;;18.96;50.42
84819;BME280;75053;51.080;13.712;2024-03-23T02:55:03;99432.06;;;19.09;49.96
84819;BME280;75053;51.080;13.712;2024-03-23T02:57:29;99431.22;;;19.09;50.11
84819;BME280;75053;51.080;13.712;2024-03-23T02:59:55;99434.06;;;19.07;50.24
84819;BME280;75053;51.080;13.712;2024-03-23T03:02:21;99436.41;;;19.02;50.36
84819;BME280;75053;51.080;13.712;2024-03-23T03:04:47;99423.72;;;18.98;50.45
84819;BME280;75053;51.080;13.712;2024-03-23T03:07:12;99433.22;;;18.78;50.84
84819;BME280;75053;51.080;13.712;2024-03-23T03:09:39;99423.38;;;19.01;50.46
84819;BME280;75053;51.080;13.712;2024-03-23T03:12:05;99419.75;;;19.02;50.25
84819;BME280;75053;51.080;13.712;2024-03-23T03:14:31;99421.09;;;18.98;50.36
84819;BME280;75053;51.080;13.712;2024-03-23T03:16:56;99414.16;;;18.82;50.82
84819;BME280;75053;51.080;13.712;2024-03-23T03:19:22;99406.81;;;19.07;50.40
84819;BME280;75053;51.080;13.712;2024-03-23T03:21:47;99404.25;;;19.13;50.19
84819;BME280;75053;51.080;13.712;2024-03-23T03:24:15;99396.31;;;19.13;50.16
84819;BME280;75053;51.080;13.712;2024-03-23T03:26:42;99390.44;;;19.26;49.80
84819;BME280;75053;51.080;13.712;2024-03-23T03:29:07;99394.88;;;19.25;50.06
84819;BME280;75053;51.080;13.712;2024-03-23T03:31:33;99392.50;;;19.30;49.72
84819;BME280;75053;51.080;13.712;2024-03-23T03:33:58;99393.97;;;19.33;49.70
84819;BME280;75053;51.080;13.712;2024-03-23T03:36:24;99393.31;;;19.45;49.49
84819;BME280;75053;51.080;13.712;2024-03-23T03:38:49;99395.97;;;19.45;49.58
84819;BME280;75053;51.080;13.712;2024-03-23T03:41:15;99396.06;;;19.37;49.82
84819;BME280;75053;51.080;13.712;2024-03-23T03:43:41;99384.00;;;19.35;50.09
84819;BME280;75053;51.080;13.712;2024-03-23T03:46:06;99371.81;;;19.34;50.04
84819;BME280;75053;51.080;13.712;2024-03-23T03:48:33;99379.66;;;19.42;50.04
84819;BME280;75053;51.080;13.712;2024-03-23T03:50:58;99366.06;;;19.30;49.93
84819;BME280;75053;51.080;13.712;2024-03-23T03:53:24;99374.66;;;19.32;50.03
84819;BME280;75053;51.080;13.712;2024-03-23T03:55:49;99370.78;;;19.35;49.67
84819;BME280;75053;51.080;13.712;2024-03-23T03:58:14;99371.81;;;19.34;49.79
84819;BME280;75053;51.080;13.712;2024-03-23T04:00:40;99352.94;;;19.37;49.90
84819;BME280;75053;51.080;13.712;2024-03-23T04:03:06;99350.13;;;19.24;50.33
84819;BME280;75053;51.080;13.712;2024-03-23T04:05:31;99363.41;;;19.30;50.11
84819;BME280;75053;51.080;13.712;2024-03-23T04:07:56;99350.66;;;19.34;50.24
84819;BME280;75053;51.080;13.712;2024-03-23T04:10:22;99344.19;;;19.36;50.14
84819;BME280;75053;51.080;13.712;2024-03-23T04:12:47;99344.84;;;19.24;50.10
84819;BME280;75053;51.080;13.712;2024-03-23T04:15:13;99332.38;;;19.18;50.26
84819;BME280;75053;51.080;13.712;2024-03-23T04:17:39;99332.53;;;19.31;49.99
84819;BME280;75053;51.080;13.712;2024-03-23T04:20:08;99330.06;;;19.15;50.49
84819;BME280;75053;51.080;13.712;2024-03-23T04:22:34;99333.81;;;19.06;50.20
84819;BME280;75053;51.080;13.712;2024-03-23T04:25:00;99327.53;;;18.92;50.39
84819;BME280;75053;51.080;13.712;2024-03-23T04:27:38;99319.50;;;18.86;50.69
84819;BME280;75053;51.080;13.712;2024-03-23T04:30:05;99308.13;;;18.56;51.10
84819;BME280;75053;51.080;13.712;2024-03-23T04:32:35;99299.09;;;18.51;51.47
84819;BME280;75053;51.080;13.712;2024-03-23T04:35:01;99302.31;;;18.24;51.80
84819;BME280;75053;51.080;13.712;2024-03-23T04:37:26;99305.88;;;18.17;51.94
84819;BME280;75053;51.080;13.712;2024-03-23T04:39:52;99303.72;;;18.35;51.29
84819;BME280;75053;51.080;13.712;2024-03-23T04:42:17;99304.59;;;18.27;51.93
84819;BME280;75053;51.080;13.712;2024-03-23T04:44:43;99309.66;;;18.51;51.46
84819;BME280;75053;51.080;13.712;2024-03-23T04:47:10;99313.25;;;18.58;51.12
84819;BME280;75053;51.080;13.712;2024-03-23T04:49:36;99308.03;;;18.64;51.04
84819;BME280;75053;51.080;13.712;2024-03-23T04:52:03;99292.75;;;18.60;51.67
84819;BME280;75053;51.080;13.712;2024-03-23T04:54:29;99259.63;;;18.43;52.04
84819;BME280;75053;51.080;13.712;2024-03-23T04:56:54;99251.03;;;18.41;51.83
84819;BME280;75053;51.080;13.712;2024-03-23T04:59:20;99245.75;;;18.41;51.94
84819;BME280;75053;51.080;13.712;2024-03-23T05:01:45;99239.56;;;18.34;52.07
84819;BME280;75053;51.080;13.712;2024-03-23T05:04:11;99231.38;;;18.29;52.13
84819;BME280;75053;51.080;13.712;2024-03-23T05:06:36;99223.91;;;18.18;52.51
84819;BME280;75053;51.080;13.712;2024-03-23T05:09:02;99232.84;;;18.32;52.41
84819;BME280;75053;51.080;13.712;2024-03-23T05:11:40;99227.00;;;18.36;51.85
84819;BME280;75053;51.080;13.712;2024-03-23T05:14:06;99229.91;;;18.41;51.75
84819;BME280;75053;51.080;13.712;2024-03-23T05:16:34;99220.44;;;18.61;51.28
84819;BME280;75053;51.080;13.712;2024-03-23T05:18:59;99222.84;;;18.56;51.34
84819;BME280;75053;51.080;13.712;2024-03-23T05:21:26;99224.84;;;18.54;51.29
84819;BME280;75053;51.080;13.712;2024-03-23T05:23:51;99217.34;;;18.72;50.79
84819;BME280;75053;51.080;13.712;2024-03-23T05:26:18;99206.16;;;18.70;51.23
84819;BME280;75053;51.080;13.712;2024-03-23T05:28:44;99182.53;;;18.83;50.68
84819;BME280;75053;51.080;13.712;2024-03-23T05:31:09;99169.50;;;18.81;50.86
84819;BME280;75053;51.080;13.712;2024-03-23T05:33:36;99181.47;;;18.63;51.23
84819;BME280;75053;51.080;13.712;2024-03-23T05:36:06;99203.13;;;18.73;50.76
84819;BME280;75053;51.080;13.712;2024-03-23T05:38:36;99182.38;;;18.70;50.78
84819;BME280;75053;51.080;13.712;2024-03-23T05:41:01;99162.19;;;18.48;51.28
84819;BME280;75053;51.080;13.712;2024-03-23T05:43:27;99170.28;;;18.46;51.31
84819;BME280;75053;51.080;13.712;2024-03-23T05:46:00;99179.94;;;18.54;51.18
84819;BME280;75053;51.080;13.712;2024-03-23T05:48:26;99187.72;;;18.91;50.33
84819;BME280;75053;51.080;13.712;2024-03-23T05:50:53;99182.03;;;18.94;50.16
84819;BME280;75053;51.080;13.712;2024-03-23T05:53:19;99186.25;;;18.88;50.26
84819;BME280;75053;51.080;13.712;2024-03-23T05:55:48;99179.72;;;18.84;50.27
84819;BME280;75053;51.080;13.712;2024-03-23T05:58:17;99158.94;;;18.81;50.91
84819;BME280;75053;51.080;13.712;2024-03-23T06:00:44;99155.47;;;18.81;50.42
84819;BME280;75053;51.080;13.712;2024-03-23T06:03:10;99149.69;;;18.71;50.85
84819;BME280;75053;51.080;13.712;2024-03-23T06:05:39;99151.25;;;18.51;51.39
84819;BME280;75053;51.080;13.712;2024-03-23T06:08:05;99136.78;;;18.61;51.21
84819;BME280;75053;51.080;13.712;2024-03-23T06:10:30;99127.16;;;18.40;51.73
84819;BME280;75053;51.080;13.712;2024-03-23T06:12:57;99111.06;;;18.35;51.91
84819;BME280;75053;51.080;13.712;2024-03-23T06:15:23;99114.31;;;18.22;52.02
84819;BME280;75053;51.080;13.712;2024-03-23T06:17:49;99099.88;;;18.33;51.69
84819;BME280;75053;51.080;13.712;2024-03-23T06:20:15;99088.59;;;18.10;52.37
84819;BME280;75053;51.080;13.712;2024-03-23T06:22:40;99088.59;;;18.39;51.82
84819;BME280;75053;51.080;13.712;2024-03-23T06:25:06;99084.47;;;18.36;51.87
84819;BME280;75053;51.080;13.712;2024-03-23T06:27:32;99096.84;;;18.36;52.05
84819;BME280;75053;51.080;13.712;2024-03-23T06:30:01;99091.94;;;18.47;51.74
84819;BME280;75053;51.080;13.712;2024-03-23T06:32:27;99079.72;;;18.46;51.58
84819;BME280;75053;51.080;13.712;2024-03-23T06:34:54;99071.28;;;18.36;51.49
84819;BME280;75053;51.080;13.712;2024-03-23T06:37:19;99076.00;;;18.41;51.55
84819;BME280;75053;51.080;13.712;2024-03-23T06:39:46;99065.19;;;18.36;51.64
84819;BME280;75053;51.080;13.712;2024-03-23T06:42:12;99057.47;;;18.34;51.47
84819;BME280;75053;51.080;13.712;2024-03-23T06:44:38;99043.50;;;18.40;51.32
84819;BME280;75053;51.080;13.712;2024-03-23T06:47:04;99032.97;;;18.61;50.84
84819;BME280;75053;51.080;13.712;2024-03-23T06:49:30;99034.41;;;18.63;50.86
84819;BME280;75053;51.080;13.712;2024-03-23T06:51:55;99032.59;;;18.85;50.21
84819;BME280;75053;51.080;13.712;2024-03-23T06:54:20;99022.78;;;18.58;51.40
84819;BME280;75053;51.080;13.712;2024-03-23T06:56:46;99019.19;;;18.09;52.49
84819;BME280;75053;51.080;13.712;2024-03-23T06:59:12;99015.78;;;17.94;53.08
84819;BME280;75053;51.080;13.712;2024-03-23T07:01:37;99019.72;;;18.19;52.54
84819;BME280;75053;51.080;13.712;2024-03-23T07:04:03;99025.88;;;18.26;52.48
84819;BME280;75053;51.080;13.712;2024-03-23T07:06:29;99030.78;;;18.29;52.12
84819;BME280;75053;51.080;13.712;2024-03-23T07:08:57;99025.69;;;18.42;51.99
84819;BME280;75053;51.080;13.712;2024-03-23T07:11:23;99033.53;;;18.21;52.48
84819;BME280;75053;51.080;13.712;2024-03-23T07:13:52;99043.47;;;18.19;52.52
84819;BME280;75053;51.080;13.712;2024-03-23T07:16:19;99039.00;;;18.55;51.80
84819;BME280;75053;51.080;13.712;2024-03-23T07:18:45;99043.28;;;18.77;51.28
84819;BME280;75053;51.080;13.712;2024-03-23T07:21:10;99038.25;;;18.82;51.15
84819;BME280;75053;51.080;13.712;2024-03-23T07:23:36;99021.50;;;18.96;50.94
84819;BME280;75053;51.080;13.712;2024-03-23T07:26:04;98995.16;;;19.30;50.57
84819;BME280;75053;51.080;13.712;2024-03-23T07:28:34;98984.88;;;19.14;50.93
84819;BME280;75053;51.080;13.712;2024-03-23T07:31:11;98982.97;;;19.29;50.33
84819;BME280;75053;51.080;13.712;2024-03-23T07:33:40;98983.78;;;19.36;50.07
84819;BME280;75053;51.080;13.712;2024-03-23T07:36:06;98968.13;;;19.28;50.87
84819;BME280;75053;51.080;13.712;2024-03-23T07:38:32;98967.94;;;19.36;50.55
84819;BME280;75053;51.080;13.712;2024-03-23T07:41:10;98959.50;;;18.92;51.15
84819;BME280;75053;51.080;13.712;2024-03-23T07:43:39;98956.56;;;18.80;50.86
84819;BME280;75053;51.080;13.712;2024-03-23T07:46:05;98952.47;;;19.05;51.10
84819;BME280;75053;51.080;13.712;2024-03-23T07:48:32;98940.22;;;19.25;50.37
84819;BME280;75053;51.080;13.712;2024-03-23T07:51:06;98933.41;;;19.44;49.78
84819;BME280;75053;51.080;13.712;2024-03-23T07:53:32;98928.19;;;19.57;49.86
84819;BME280;75053;51.080;13.712;2024-03-23T07:56:03;98933.50;;;19.63;49.60
84819;BME280;75053;51.080;13.712;2024-03-23T07:58:29;98918.47;;;19.64;49.70
84819;BME280;75053;51.080;13.712;2024-03-23T08:00:56;98909.59;;;19.91;49.11
84819;BME280;75053;51.080;13.712;2024-03-23T08:03:22;98896.88;;;20.33;48.80
84819;BME280;75053;51.080;13.712;2024-03-23T08:05:48;98892.19;;;20.48;48.68
84819;BME280;75053;51.080;13.712;2024-03-23T08:08:14;98889.75;;;20.47;48.62
84819;BME280;75053;51.080;13.712;2024-03-23T08:11:01;98884.44;;;20.60;48.28
84819;BME280;75053;51.080;13.712;2024-03-23T08:13:29;98884.03;;;20.69;48.12
84819;BME280;75053;51.080;13.712;2024-03-23T08:16:00;98875.50;;;20.48;48.18
84819;BME280;75053;51.080;13.712;2024-03-23T08:18:27;98871.81;;;20.29;48.48
84819;BME280;75053;51.080;13.712;2024-03-23T08:21:02;98857.16;;;20.27;48.67
84819;BME280;75053;51.080;13.712;2024-03-23T08:23:30;98853.47;;;20.54;47.89
84819;BME280;75053;51.080;13.712;2024-03-23T08:26:07;98850.00;;;20.86;47.76
84819;BME280;75053;51.080;13.712;2024-03-23T08:28:34;98836.69;;;21.05;47.57
84819;BME280;75053;51.080;13.712;2024-03-23T08:31:04;98840.34;;;21.10;46.80
84819;BME280;75053;51.080;13.712;2024-03-23T08:33:33;98833.03;;;20.99;46.72
84819;BME280;75053;51.080;13.712;2024-03-23T08:36:03;98829.53;;;21.18;46.54
84819;BME280;75053;51.080;13.712;2024-03-23T08:38:29;98819.59;;;21.01;46.42
84819;BME280;75053;51.080;13.712;2024-03-23T08:40:58;98827.19;;;20.85;46.85
84819;BME280;75053;51.080;13.712;2024-03-23T08:43:25;98830.59;;;20.78;47.19
84819;BME280;75053;51.080;13.712;2024-03-23T08:45:50;98843.13;;;20.39;47.34
84819;BME280;75053;51.080;13.712;2024-03-23T08:48:16;98842.28;;;20.52;47.28
84819;BME280;75053;51.080;13.712;2024-03-23T08:50:41;98829.25;;;20.31;48.00
84819;BME280;75053;51.080;13.712;2024-03-23T08:53:07;98848.91;;;19.83;49.36
84819;BME280;75053;51.080;13.712;2024-03-23T08:55:33;98838.81;;;20.25;48.44
84819;BME280;75053;51.080;13.712;2024-03-23T08:57:58;98833.47;;;20.83;47.89
84819;BME280;75053;51.080;13.712;2024-03-23T09:00:25;98838.56;;;21.48;46.40
84819;BME280;75053;51.080;13.712;2024-03-23T09:02:51;98832.00;;;21.57;45.71
84819;BME280;75053;51.080;13.712;2024-03-23T09:05:16;98830.22;;;22.13;45.40
84819;BME280;75053;51.080;13.712;2024-03-23T09:07:42;98832.72;;;22.33;44.53
84819;BME280;75053;51.080;13.712;2024-03-23T09:10:07;98833.53;;;22.33;44.26
84819;BME280;75053;51.080;13.712;2024-03-23T09:12:33;98822.88;;;22.64;44.28
84819;BME280;75053;51.080;13.712;2024-03-23T09:14:59;98825.66;;;22.69;44.12
84819;BME280;75053;51.080;13.712;2024-03-23T09:17:25;98833.22;;;22.72;43.87
84819;BME280;75053;51.080;13.712;2024-03-23T09:19:51;98823.00;;;22.69;43.89
84819;BME280;75053;51.080;13.712;2024-03-23T09:22:16;98824.97;;;22.31;44.60
84819;BME280;75053;51.080;13.712;2024-03-23T09:24:41;98820.00;;;22.41;44.67
84819;BME280;75053;51.080;13.712;2024-03-23T09:27:07;98838.50;;;21.61;45.09
84819;BME280;75053;51.080;13.712;2024-03-23T09:29:33;98831.56;;;21.16;46.61
84819;BME280;75053;51.080;13.712;2024-03-23T09:31:58;98833.88;;;19.96;47.89
84819;BME280;75053;51.080;13.712;2024-03-23T09:34:23;98843.50;;;20.17;48.16
84819;BME280;75053;51.080;13.712;2024-03-23T09:36:52;98846.84;;;19.72;48.77
84819;BME280;75053;51.080;13.712;2024-03-23T09:39:18;98872.00;;;19.42;48.47
84819;BME280;75053;51.080;13.712;2024-03-23T09:41:46;98886.84;;;20.03;47.79
84819;BME280;75053;51.080;13.712;2024-03-23T09:44:12;98902.25;;;19.93;48.65
84819;BME280;75053;51.080;13.712;2024-03-23T09:46:38;98927.53;;;18.18;52.26
84819;BME280;75053;51.080;13.712;2024-03-23T09:49:06;98937.06;;;18.33;52.53
84819;BME280;75053;51.080;13.712;2024-03-23T09:51:35;98948.34;;;18.06;53.12
84819;BME280;75053;51.080;13.712;2024-03-23T09:54:01;98971.63;;;17.38;53.72
84819;BME280;75053;51.080;13.712;2024-03-23T09:56:26;98994.16;;;17.04;54.06
84819;BME280;75053;51.080;13.712;2024-03-23T09:59:00;99023.94;;;16.45;53.95
84819;BME280;75053;51.080;13.712;2024-03-23T10:01:26;99045.66;;;16.16;54.48
84819;BME280;75053;51.080;13.712;2024-03-23T10:03:51;99059.22;;;16.28;54.31
84819;BME280;75053;51.080;13.712;2024-03-23T10:06:21;99054.59;;;15.99;54.78
84819;BME280;75053;51.080;13.712;2024-03-23T10:08:46;99061.84;;;15.98;54.56
84819;BME280;75053;51.080;13.712;2024-03-23T10:11:16;99079.34;;;15.75;55.52
84819;BME280;75053;51.080;13.712;2024-03-23T10:13:45;99121.75;;;15.32;53.96
84819;BME280;75053;51.080;13.712;2024-03-23T10:16:23;99126.28;;;14.58;55.25
84819;BME280;75053;51.080;13.712;2024-03-23T10:18:49;99157.22;;;14.13;55.54
84819;BME280;75053;51.080;13.712;2024-03-23T10:21:16;99173.13;;;13.86;55.81
84819;BME280;75053;51.080;13.712;2024-03-23T10:23:42;99195.63;;;13.71;54.78
84819;BME280;75053;51.080;13.712;2024-03-23T10:31:22;99230.56;;;13.19;55.95
84819;BME280;75053;51.080;13.712;2024-03-23T10:33:48;99254.38;;;13.16;55.84
84819;BME280;75053;51.080;13.712;2024-03-23T10:36:14;99261.13;;;13.19;56.48
84819;BME280;75053;51.080;13.712;2024-03-23T10:38:41;99262.56;;;13.31;56.00
84819;BME280;75053;51.080;13.712;2024-03-23T10:41:08;99291.22;;;13.32;55.61
84819;BME280;75053;51.080;13.712;2024-03-23T10:43:40;99301.22;;;13.19;56.11
84819;BME280;75053;51.080;13.712;2024-03-23T10:46:05;99329.28;;;12.63;56.63
84819;BME280;75053;51.080;13.712;2024-03-23T10:48:32;99323.03;;;13.10;55.71
84819;BME280;75053;51.080;13.712;2024-03-23T10:51:00;99342.91;;;12.57;56.94
84819;BME280;75053;51.080;13.712;2024-03-23T10:53:27;99361.72;;;12.34;57.28
84819;BME280;75053;51.080;13.712;2024-03-23T10:55:54;99382.34;;;12.27;57.02
84819;BME280;75053;51.080;13.712;2024-03-23T10:58:24;99383.31;;;12.26;56.45
84819;BME280;75053;51.080;13.712;2024-03-23T11:00:52;99391.63;;;12.58;55.83
84819;BME280;75053;51.080;13.712;2024-03-23T11:06:35;99415.94;;;12.87;56.28
84819;BME280;75053;51.080;13.712;2024-03-23T11:09:03;99420.50;;;13.22;55.06
84819;BME280;75053;51.080;13.712;2024-03-23T11:11:29;99410.38;;;13.98;54.25
84819;BME280;75053;51.080;13.712;2024-03-23T11:13:59;99425.06;;;13.47;55.53
84819;BME280;75053;51.080;13.712;2024-03-23T11:16:27;99432.78;;;13.48;55.53
84819;BME280;75053;51.080;13.712;2024-03-23T11:18:54;99418.41;;;13.25;55.73
84819;BME280;75053;51.080;13.712;2024-03-23T11:21:54;99421.69;;;13.54;54.89
84819;BME280;75053;51.080;13.712;2024-03-23T11:24:21;99424.16;;;14.00;55.28
84819;BME280;75053;51.080;13.712;2024-03-23T11:27:16;99421.69;;;13.81;54.87
84819;BME280;75053;51.080;13.712;2024-03-23T11:55:51;99479.22;;;14.35;53.19
84819;BME280;75053;51.080;13.712;2024-03-23T11:58:21;99480.41;;;15.01;52.57
84819;BME280;75053;51.080;13.712;2024-03-23T12:03:18;99473.59;;;14.65;51.98
84819;BME280;75053;51.080;13.712;2024-03-23T12:05:48;99477.81;;;14.23;52.81
84819;BME280;75053;51.080;13.712;2024-03-23T12:08:19;99464.88;;;14.12;53.00
84819;BME280;75053;51.080;13.712;2024-03-23T12:13:20;99464.78;;;13.69;53.50
84819;BME280;75053;51.080;13.712;2024-03-23T12:15:49;99491.53;;;13.90;53.75
84819;BME280;75053;51.080;13.712;2024-03-23T12:18:14;99471.00;;;14.47;52.96
84819;BME280;75053;51.080;13.712;2024-03-23T12:20:41;99465.16;;;14.79;51.76
84819;BME280;75053;51.080;13.712;2024-03-23T12:23:08;99457.34;;;15.12;51.50
84819;BME280;75053;51.080;13.712;2024-03-23T12:25:35;99456.75;;;15.26;51.60
84819;BME280;75053;51.080;13.712;2024-03-23T12:28:01;99466.84;;;15.13;50.16
84819;BME280;75053;51.080;13.712;2024-03-23T12:30:27;99486.47;;;14.76;50.35
84819;BME280;75053;51.080;13.712;2024-03-23T12:32:52;99477.72;;;13.97;51.25
84819;BME280;75053;51.080;13.712;2024-03-23T12:35:18;99465.91;;;14.28;51.17
84819;BME280;75053;51.080;13.712;2024-03-23T12:37:44;99480.06;;;14.18;50.11
84819;BME280;75053;51.080;13.712;2024-03-23T12:40:10;99476.66;;;14.78;50.12
84819;BME280;75053;51.080;13.712;2024-03-23T12:42:35;99450.03;;;15.57;47.61
84819;BME280;75053;51.080;13.712;2024-03-23T12:45:01;99453.03;;;15.70;47.60
84819;BME280;75053;51.080;13.712;2024-03-23T12:47:26;99452.72;;;15.06;49.45
84819;BME280;75053;51.080;13.712;2024-03-23T12:49:52;99458.63;;;14.83;50.54
84819;BME280;75053;51.080;13.712;2024-03-23T12:52:17;99471.00;;;14.73;50.32
84819;BME280;75053;51.080;13.712;2024-03-23T12:54:45;99478.19;;;15.14;50.16
84819;BME280;75053;51.080;13.712;2024-03-23T12:57:10;99481.63;;;14.46;48.77
84819;BME280;75053;51.080;13.712;2024-03-23T12:59:35;99501.91;;;14.09;51.36
84819;BME280;75053;51.080;13.712;2024-03-23T13:02:01;99502.28;;;14.66;49.45
84819;BME280;75053;51.080;13.712;2024-03-23T13:04:26;99513.56;;;14.41;49.02
84819;BME280;75053;51.080;13.712;2024-03-23T13:06:52;99512.28;;;14.28;48.47
84819;BME280;75053;51.080;13.712;2024-03-23T13:09:17;99497.22;;;14.65;48.90
84819;BME280;75053;51.080;13.712;2024-03-23T13:11:43;99487.53;;;14.48;48.48
84819;BME280;75053;51.080;13.712;2024-03-23T13:14:09;99482.16;;;14.32;48.90
84819;BME280;75053;51.080;13.712;2024-03-23T13:16:35;99473.59;;;14.90;48.62
84819;BME280;75053;51.080;13.712;2024-03-23T13:19:00;99463.31;;;14.97;47.18
84819;BME280;75053;51.080;13.712;2024-03-23T13:21:29;99471.97;;;15.15;46.88
84819;BME280;75053;51.080;13.712;2024-03-23T13:23:54;99490.53;;;14.96;47.70
84819;BME280;75053;51.080;13.712;2024-03-23T13:26:20;99496.91;;;15.78;46.45
84819;BME280;75053;51.080;13.712;2024-03-23T13:28:48;99526.28;;;14.89;46.69
84819;BME280;75053;51.080;13.712;2024-03-23T13:31:13;99540.97;;;15.50;46.00
84819;BME280;75053;51.080;13.712;2024-03-23T13:33:39;99555.78;;;15.59;45.08
84819;BME280;75053;51.080;13.712;2024-03-23T13:36:05;99556.63;;;15.60;44.80
84819;BME280;75053;51.080;13.712;2024-03-23T13:38:30;99559.78;;;15.38;45.06
84819;BME280;75053;51.080;13.712;2024-03-23T13:40:59;99561.00;;;15.26;44.42
84819;BME280;75053;51.080;13.712;2024-03-23T13:43:26;99555.28;;;15.56;44.14
84819;BME280;75053;51.080;13.712;2024-03-23T13:45:56;99534.41;;;15.88;43.05
84819;BME280;75053;51.080;13.712;2024-03-23T13:48:27;99522.91;;;17.02;41.89
84819;BME280;75053;51.080;13.712;2024-03-23T13:51:00;99521.41;;;17.47;40.98
84819;BME280;75053;51.080;13.712;2024-03-23T13:53:26;99509.41;;;18.44;39.34
84819;BME280;75053;51.080;13.712;2024-03-23T13:55:52;99502.97;;;17.23;39.92
84819;BME280;75053;51.080;13.712;2024-03-23T13:58:18;99498.31;;;17.49;40.16
84819;BME280;75053;51.080;13.712;2024-03-23T14:00:44;99502.59;;;18.72;39.77
84819;BME280;75053;51.080;13.712;2024-03-23T14:03:10;99494.97;;;18.32;38.61
84819;BME280;75053;51.080;13.712;2024-03-23T14:05:36;99489.75;;;17.86;38.81
84819;BME280;75053;51.080;13.712;2024-03-23T14:08:06;99495.91;;;17.70;39.18
84819;BME280;75053;51.080;13.712;2024-03-23T14:10:32;99480.50;;;18.20;38.38
84819;BME280;75053;51.080;13.712;2024-03-23T14:12:58;99485.66;;;18.14;37.59
84819;BME280;75053;51.080;13.712;2024-03-23T14:15:26;99489.41;;;18.19;38.48
84819;BME280;75053;51.080;13.712;2024-03-23T14:17:51;99501.13;;;18.47;37.59
84819;BME280;75053;51.080;13.712;2024-03-23T14:20:17;99507.63;;;20.05;37.07
84819;BME280;75053;51.080;13.712;2024-03-23T14:22:42;99520.44;;;19.07;35.17